Time;durP1;ratioP1;P1;durP2;ratioP2;P2;SDS_P1;SDS_P2;PMS_P1;PMS_P2;Temp;Humidity;BMP_temperature;BMP_pressure;BME280_temperature;BME280_humidity;BME280_pressure;Samples;Min_cycle;Max_cycle;Signal;HPM_P1;HPM_P2
2023/12/16 00:01:03;;;;;;;12.87;6.57;;;;;;;;;;5077326;28;20217;-71
2023/12/16 00:03:30;;;;;;;11.70;6.67;;;;;;;;;;5094793;28;20516;-71
2023/12/16 00:05:56;;;;;;;15.57;6.80;;;;;;;;;;5094697;28;20196;-71
2023/12/16 00:08:23;;;;;;;16.63;6.67;;;;;;;;;;5076934;28;20205;-71
2023/12/16 00:10:50;;;;;;;11.23;6.43;;;;;;;;;;5076899;28;20193;-71
2023/12/16 00:13:21;;;;;;;15.57;7.30;;;;;;;;;;5095116;28;20533;-71
2023/12/16 00:15:48;;;;;;;10.97;6.90;;;;;;;;;;5076665;28;20525;-71
2023/12/16 00:18:15;;;;;;;13.33;5.77;;;;;;;;;;5094705;28;20216;-71
2023/12/16 00:20:42;;;;;;;12.50;5.70;;;;;;;;;;5095433;28;20419;-72
2023/12/16 00:23:09;;;;;;;13.90;6.03;;;;;;;;;;5076468;28;20185;-72
2023/12/16 00:25:35;;;;;;;12.27;6.10;;;;;;;;;;5075816;28;20181;-71
2023/12/16 00:28:02;;;;;;;11.30;6.07;;;;;;;;;;5059836;28;20201;-71
2023/12/16 00:30:29;;;;;;;11.43;5.80;;;;;;;;;;5075619;28;20407;-71
2023/12/16 00:33:13;;;;;;;17.17;5.70;;;;;;;;;;5078938;28;20162;-72
2023/12/16 00:35:39;;;;;;;14.60;6.30;;;;;;;;;;5094970;28;20181;-71
2023/12/16 00:38:25;;;;;;;14.30;5.30;;;;;;;;;;5094176;28;20604;-71
2023/12/16 00:40:51;;;;;;;10.97;5.07;;;;;;;;;;5094585;28;20419;-71
2023/12/16 00:43:18;;;;;;;11.33;5.23;;;;;;;;;;5094095;28;20427;-71
2023/12/16 00:45:44;;;;;;;10.40;4.63;;;;;;;;;;5093996;28;20563;-72
2023/12/16 00:48:11;;;;;;;11.20;5.60;;;;;;;;;;5094297;28;20506;-72
2023/12/16 00:50:38;;;;;;;8.10;3.77;;;;;;;;;;5094446;28;20173;-71
2023/12/16 00:53:05;;;;;;;8.53;3.30;;;;;;;;;;5094120;28;20559;-72
2023/12/16 00:55:32;;;;;;;14.03;4.60;;;;;;;;;;5076871;28;20189;-70
2023/12/16 00:58:16;;;;;;;15.63;4.90;;;;;;;;;;5078944;28;20521;-71
2023/12/16 01:00:42;;;;;;;14.47;5.50;;;;;;;;;;5094602;28;20447;-71
2023/12/16 01:03:09;;;;;;;16.00;6.83;;;;;;;;;;5076666;28;20177;-71
2023/12/16 01:05:37;;;;;;;14.47;6.03;;;;;;;;;;5075572;28;20420;-71
2023/12/16 01:08:04;;;;;;;16.57;5.53;;;;;;;;;;5093590;28;20554;-71
2023/12/16 01:10:48;;;;;;;17.23;6.27;;;;;;;;;;5079357;28;20233;-71
2023/12/16 01:49:01;;;;;;;13.80;4.83;;;;;;;;;;5097219;28;20443;-71
2023/12/16 01:51:29;;;;;;;14.97;5.20;;;;;;;;;;5079520;28;20193;-71
2023/12/16 01:53:56;;;;;;;16.07;5.97;;;;;;;;;;5097846;28;20188;-71
2023/12/16 01:56:22;;;;;;;16.03;6.20;;;;;;;;;;5079243;28;20210;-71
2023/12/16 01:58:50;;;;;;;15.20;6.00;;;;;;;;;;5097229;28;20209;-71
2023/12/16 02:01:17;;;;;;;12.30;5.60;;;;;;;;;;5097479;28;20447;-71
2023/12/16 02:03:44;;;;;;;20.23;6.50;;;;;;;;;;5079408;28;20640;-72
2023/12/16 02:06:11;;;;;;;20.23;7.70;;;;;;;;;;5047004;28;20193;-71
2023/12/16 02:08:38;;;;;;;19.43;5.80;;;;;;;;;;5097166;28;20197;-71
2023/12/16 02:11:06;;;;;;;20.40;6.00;;;;;;;;;;5097733;28;20681;-71
2023/12/16 02:13:33;;;;;;;18.80;6.53;;;;;;;;;;5097503;28;20201;-71
2023/12/16 02:15:59;;;;;;;17.27;6.37;;;;;;;;;;5078964;28;20283;-71
2023/12/16 02:18:26;;;;;;;14.70;4.97;;;;;;;;;;5097293;28;20276;-71
2023/12/16 02:20:53;;;;;;;18.40;5.10;;;;;;;;;;5095386;28;20505;-71
2023/12/16 02:23:20;;;;;;;15.17;5.13;;;;;;;;;;5096715;28;20583;-72
2023/12/16 02:25:46;;;;;;;20.67;5.40;;;;;;;;;;5079469;28;20883;-71
2023/12/16 02:28:13;;;;;;;22.23;5.63;;;;;;;;;;5078905;28;20197;-71
2023/12/16 02:30:40;;;;;;;15.80;4.87;;;;;;;;;;5096553;28;20184;-71
2023/12/16 02:33:06;;;;;;;20.70;6.17;;;;;;;;;;5097057;28;20182;-71
2023/12/16 02:35:33;;;;;;;13.07;4.60;;;;;;;;;;5061965;28;20193;-72
2023/12/16 02:38:00;;;;;;;18.77;5.07;;;;;;;;;;5078811;28;20543;-71
2023/12/16 02:40:27;;;;;;;14.50;5.40;;;;;;;;;;5061980;28;20182;-71
2023/12/16 02:42:54;;;;;;;16.77;4.20;;;;;;;;;;5062198;28;20189;-72
2023/12/16 02:45:21;;;;;;;12.57;3.83;;;;;;;;;;5062310;28;20196;-71
2023/12/16 02:47:47;;;;;;;16.73;4.47;;;;;;;;;;5096760;28;20229;-72
2023/12/16 02:50:14;;;;;;;14.00;4.83;;;;;;;;;;5097263;28;20261;-72
2023/12/16 02:52:41;;;;;;;15.60;4.97;;;;;;;;;;5078311;28;20193;-70
2023/12/16 02:55:07;;;;;;;12.60;4.50;;;;;;;;;;5096088;28;20185;-71
2023/12/16 02:57:34;;;;;;;13.10;4.33;;;;;;;;;;5096625;28;20680;-72
2023/12/16 03:00:02;;;;;;;14.30;4.03;;;;;;;;;;5061738;28;20193;-72
2023/12/16 03:02:29;;;;;;;22.60;5.10;;;;;;;;;;5078233;28;20605;-72
2023/12/16 03:04:55;;;;;;;16.90;4.60;;;;;;;;;;5096498;28;20181;-71
2023/12/16 03:07:22;;;;;;;12.27;4.33;;;;;;;;;;5078775;28;20200;-72
2023/12/16 03:09:49;;;;;;;8.40;3.93;;;;;;;;;;5095758;28;20209;-71
2023/12/16 03:12:33;;;;;;;13.90;4.77;;;;;;;;;;5095826;28;20495;-72
2023/12/16 03:14:59;;;;;;;14.10;4.27;;;;;;;;;;5061576;28;20199;-71
2023/12/16 03:17:26;;;;;;;12.40;2.63;;;;;;;;;;5096040;28;20205;-72
2023/12/16 03:19:53;;;;;;;12.20;4.37;;;;;;;;;;5077810;28;20247;-71
2023/12/16 03:22:19;;;;;;;13.20;4.83;;;;;;;;;;5077944;28;20193;-71
2023/12/16 03:25:04;;;;;;;15.70;4.30;;;;;;;;;;5095634;28;20158;-71
2023/12/16 03:27:31;;;;;;;18.30;4.60;;;;;;;;;;5095076;28;20235;-71
2023/12/16 03:29:58;;;;;;;13.27;4.90;;;;;;;;;;5095387;28;20178;-71
2023/12/16 03:32:25;;;;;;;13.57;4.77;;;;;;;;;;5095387;28;20186;-71
2023/12/16 03:34:51;;;;;;;15.47;5.03;;;;;;;;;;5095655;28;20185;-71
2023/12/16 03:37:18;;;;;;;18.03;5.00;;;;;;;;;;5095905;28;20527;-70
2023/12/16 03:39:45;;;;;;;13.37;4.20;;;;;;;;;;5078332;28;20678;-71
2023/12/16 03:42:12;;;;;;;10.90;4.43;;;;;;;;;;5077312;28;20502;-71
2023/12/16 03:44:38;;;;;;;16.50;4.77;;;;;;;;;;5077172;28;20243;-71
2023/12/16 03:47:05;;;;;;;13.03;3.93;;;;;;;;;;5094985;28;20180;-72
2023/12/16 03:49:31;;;;;;;17.80;4.50;;;;;;;;;;5077289;28;20548;-71
2023/12/16 03:51:58;;;;;;;17.13;4.90;;;;;;;;;;5077346;28;20189;-72
2023/12/16 03:54:26;;;;;;;12.57;3.50;;;;;;;;;;5077417;28;20235;-72
2023/12/16 03:56:53;;;;;;;17.37;4.10;;;;;;;;;;5094120;28;20193;-71
2023/12/16 03:59:20;;;;;;;12.73;3.70;;;;;;;;;;5095952;28;20276;-72
2023/12/16 04:01:47;;;;;;;18.33;3.80;;;;;;;;;;5095289;28;20217;-71
2023/12/16 04:04:13;;;;;;;13.47;3.30;;;;;;;;;;5093698;28;20193;-71
2023/12/16 04:06:43;;;;;;;13.07;3.20;;;;;;;;;;5094924;28;20181;-71
2023/12/16 04:09:10;;;;;;;17.07;3.57;;;;;;;;;;5076720;28;20193;-71
2023/12/16 04:11:45;;;;;;;15.00;3.47;;;;;;;;;;5093525;28;20196;-71
2023/12/16 04:14:12;;;;;;;16.23;3.73;;;;;;;;;;5077388;28;20256;-71
2023/12/16 04:16:38;;;;;;;17.90;3.73;;;;;;;;;;5094832;28;20189;-70
2023/12/16 04:19:05;;;;;;;11.07;2.63;;;;;;;;;;5094511;28;20204;-72
2023/12/16 04:21:35;;;;;;;14.90;3.37;;;;;;;;;;5094329;28;20182;-72
2023/12/16 04:24:01;;;;;;;20.90;4.40;;;;;;;;;;5094539;28;20568;-72
2023/12/16 04:26:28;;;;;;;13.90;3.77;;;;;;;;;;5093102;28;20226;-71
2023/12/16 04:29:12;;;;;;;12.53;3.60;;;;;;;;;;5079200;28;20197;-72
2023/12/16 04:31:40;;;;;;;14.80;4.13;;;;;;;;;;5093506;28;20426;-72
2023/12/16 04:34:24;;;;;;;12.90;4.03;;;;;;;;;;5064871;28;20234;-71
2023/12/16 04:36:51;;;;;;;16.37;4.30;;;;;;;;;;5094489;28;20213;-72
2023/12/16 04:39:18;;;;;;;12.47;3.57;;;;;;;;;;5094389;28;20181;-72
2023/12/16 04:41:45;;;;;;;14.77;4.37;;;;;;;;;;5094108;28;20181;-72
2023/12/16 04:44:12;;;;;;;15.73;4.00;;;;;;;;;;5094458;28;20624;-73
2023/12/16 04:46:38;;;;;;;21.73;4.83;;;;;;;;;;5094497;28;20654;-72
2023/12/16 04:49:05;;;;;;;11.60;4.57;;;;;;;;;;5076209;28;20201;-72
2023/12/16 04:51:31;;;;;;;15.10;4.73;;;;;;;;;;5093994;28;20182;-72
2023/12/16 04:53:58;;;;;;;14.20;3.90;;;;;;;;;;5076072;28;20224;-72
2023/12/16 04:56:25;;;;;;;13.53;3.83;;;;;;;;;;5076379;28;20209;-72
2023/12/16 04:58:51;;;;;;;10.87;3.80;;;;;;;;;;5075883;28;20536;-72
2023/12/16 05:01:35;;;;;;;17.40;4.60;;;;;;;;;;5064757;28;20259;-73
2023/12/16 05:04:02;;;;;;;13.53;4.17;;;;;;;;;;5075884;28;20182;-71
2023/12/16 05:06:29;;;;;;;17.90;4.30;;;;;;;;;;5094042;28;20220;-73
2023/12/16 05:08:56;;;;;;;14.27;4.37;;;;;;;;;;5094219;28;20216;-71
2023/12/16 05:11:23;;;;;;;14.13;5.00;;;;;;;;;;5093569;28;20302;-72
2023/12/16 05:13:50;;;;;;;17.13;4.10;;;;;;;;;;5093595;28;20418;-71
2023/12/16 05:16:17;;;;;;;15.90;4.57;;;;;;;;;;5093173;28;20178;-71
2023/12/16 05:18:43;;;;;;;14.63;4.03;;;;;;;;;;5093299;28;20762;-72
2023/12/16 05:21:10;;;;;;;13.83;4.80;;;;;;;;;;5059126;28;20207;-71
2023/12/16 05:23:37;;;;;;;13.27;4.20;;;;;;;;;;5075628;28;20502;-72
2023/12/16 05:26:03;;;;;;;17.40;4.87;;;;;;;;;;5093429;28;20238;-71
2023/12/16 05:28:33;;;;;;;16.77;4.90;;;;;;;;;;5059025;28;20529;-71
2023/12/16 05:31:00;;;;;;;17.43;4.20;;;;;;;;;;5075673;28;20209;-72
2023/12/16 05:33:26;;;;;;;13.27;3.73;;;;;;;;;;5075800;28;20715;-72
2023/12/16 05:35:53;;;;;;;22.10;5.20;;;;;;;;;;5059014;28;20197;-72
2023/12/16 05:38:20;;;;;;;20.77;4.30;;;;;;;;;;5059412;28;20628;-72
2023/12/16 05:40:46;;;;;;;19.23;5.17;;;;;;;;;;5093346;28;20239;-72
2023/12/16 05:43:13;;;;;;;18.23;4.90;;;;;;;;;;5059174;28;20193;-72
2023/12/16 05:45:39;;;;;;;17.10;4.87;;;;;;;;;;5093822;28;20212;-72
2023/12/16 05:48:06;;;;;;;14.07;4.30;;;;;;;;;;5092249;28;20196;-72
2023/12/16 05:50:33;;;;;;;16.43;4.63;;;;;;;;;;5042464;28;20590;-72
2023/12/16 05:53:00;;;;;;;17.80;4.87;;;;;;;;;;5043156;28;20212;-71
2023/12/16 05:55:26;;;;;;;19.13;5.00;;;;;;;;;;5058978;28;20186;-72
2023/12/16 05:57:53;;;;;;;15.83;4.63;;;;;;;;;;5093490;28;20192;-72
2023/12/16 06:00:20;;;;;;;19.97;5.00;;;;;;;;;;5074417;28;20239;-73
2023/12/16 06:02:46;;;;;;;12.07;3.00;;;;;;;;;;5093270;28;20186;-74
2023/12/16 06:05:13;;;;;;;18.37;4.17;;;;;;;;;;5075250;28;20554;-72
2023/12/16 06:07:40;;;;;;;10.00;3.40;;;;;;;;;;5093103;28;20502;-73
2023/12/16 06:10:07;;;;;;;8.10;3.53;;;;;;;;;;5092045;28;20256;-72
2023/12/16 06:12:34;;;;;;;14.03;3.77;;;;;;;;;;5075381;28;20600;-73
2023/12/16 06:15:01;;;;;;;12.50;3.70;;;;;;;;;;5093082;28;20181;-74
2023/12/16 06:17:27;;;;;;;12.30;3.90;;;;;;;;;;5093040;28;20280;-72
2023/12/16 06:19:56;;;;;;;17.10;3.97;;;;;;;;;;5075825;28;20177;-72
2023/12/16 06:22:24;;;;;;;13.17;3.70;;;;;;;;;;5093376;28;20189;-72
2023/12/16 06:24:51;;;;;;;18.27;3.67;;;;;;;;;;5075622;28;20184;-72
2023/12/16 06:27:17;;;;;;;13.30;3.30;;;;;;;;;;5093127;28;20575;-73
2023/12/16 06:29:44;;;;;;;15.63;3.70;;;;;;;;;;5078768;28;20271;-75
2023/12/16 06:32:11;;;;;;;11.90;3.70;;;;;;;;;;5096705;28;20217;-75
2023/12/16 06:34:38;;;;;;;19.27;3.23;;;;;;;;;;5079796;28;20268;-72
2023/12/16 06:37:05;;;;;;;13.43;3.20;;;;;;;;;;5079970;28;20188;-73
2023/12/16 06:39:32;;;;;;;15.07;3.73;;;;;;;;;;5096680;28;20181;-72
2023/12/16 06:41:58;;;;;;;13.83;4.40;;;;;;;;;;5078664;28;20184;-72
2023/12/16 06:44:25;;;;;;;15.10;3.97;;;;;;;;;;5078650;28;20636;-73
2023/12/16 06:46:52;;;;;;;16.27;4.20;;;;;;;;;;5096729;28;20188;-72
2023/12/16 06:49:19;;;;;;;20.07;3.27;;;;;;;;;;5079207;28;20215;-75
2023/12/16 06:51:46;;;;;;;13.77;3.70;;;;;;;;;;5097391;28;20221;-73
2023/12/16 06:54:13;;;;;;;13.70;4.73;;;;;;;;;;5097185;28;20193;-73
2023/12/16 06:56:57;;;;;;;12.33;4.30;;;;;;;;;;5058589;28;20201;-72
2023/12/16 06:59:24;;;;;;;17.30;4.77;;;;;;;;;;5059403;28;20190;-75
2023/12/16 07:01:51;;;;;;;16.73;4.77;;;;;;;;;;5058449;28;20250;-74
2023/12/16 07:04:18;;;;;;;9.73;3.77;;;;;;;;;;5059029;28;20518;-74
2023/12/16 07:06:46;;;;;;;11.90;4.10;;;;;;;;;;5059853;28;20277;-74
2023/12/16 07:09:19;;;;;;;16.13;4.60;;;;;;;;;;5059901;28;20208;-72
2023/12/16 07:11:46;;;;;;;12.90;4.37;;;;;;;;;;5058234;28;20220;-72
2023/12/16 07:14:13;;;;;;;13.03;4.23;;;;;;;;;;5075405;28;20190;-72
2023/12/16 07:16:40;;;;;;;12.53;4.40;;;;;;;;;;5057825;28;20197;-72
2023/12/16 07:19:07;;;;;;;12.97;4.20;;;;;;;;;;5075652;28;20206;-72
2023/12/16 07:21:34;;;;;;;10.47;3.93;;;;;;;;;;5058657;28;20182;-71
2023/12/16 07:24:01;;;;;;;13.43;4.07;;;;;;;;;;5058260;28;20193;-72
2023/12/16 07:26:28;;;;;;;20.83;7.00;;;;;;;;;;5075726;28;20186;-72
2023/12/16 07:28:55;;;;;;;12.57;3.70;;;;;;;;;;5075909;28;20206;-71
2023/12/16 07:31:22;;;;;;;19.87;5.73;;;;;;;;;;5057740;28;20671;-72
2023/12/16 07:33:49;;;;;;;10.80;4.00;;;;;;;;;;5057852;28;20205;-73
2023/12/16 07:36:16;;;;;;;15.33;4.67;;;;;;;;;;5074109;28;20243;-72
2023/12/16 07:38:43;;;;;;;15.23;3.03;;;;;;;;;;5058082;28;20189;-73
2023/12/16 07:41:10;;;;;;;10.47;3.37;;;;;;;;;;5057816;28;20198;-73
2023/12/16 07:43:37;;;;;;;14.47;4.60;;;;;;;;;;5075180;28;20196;-73
2023/12/16 07:46:04;;;;;;;15.80;4.47;;;;;;;;;;5057552;28;20182;-72
2023/12/16 07:48:31;;;;;;;14.33;7.10;;;;;;;;;;5058019;28;20175;-72
2023/12/16 07:50:58;;;;;;;13.77;4.87;;;;;;;;;;5075624;28;20213;-73
2023/12/16 07:53:24;;;;;;;12.43;4.90;;;;;;;;;;5075279;28;20217;-72
2023/12/16 07:55:51;;;;;;;15.53;5.27;;;;;;;;;;5075879;28;20521;-72
2023/12/16 07:58:18;;;;;;;14.37;5.03;;;;;;;;;;5057329;28;20190;-72
2023/12/16 08:00:46;;;;;;;9.17;4.03;;;;;;;;;;5075387;28;20328;-73
2023/12/16 08:07:12;;;;;;;20.80;10.03;;;;;;;;;;5074841;28;20719;-73
2023/12/16 08:09:39;;;;;;;10.93;4.63;;;;;;;;;;5073405;28;20689;-73
2023/12/16 08:12:06;;;;;;;12.83;4.10;;;;;;;;;;5057085;28;20185;-72
2023/12/16 08:14:33;;;;;;;11.83;5.17;;;;;;;;;;5040404;28;20186;-72
2023/12/16 08:17:00;;;;;;;13.37;5.23;;;;;;;;;;5056732;28;20220;-73
2023/12/16 08:19:26;;;;;;;9.77;4.40;;;;;;;;;;5070234;28;20282;-72
2023/12/16 08:21:53;;;;;;;10.70;5.63;;;;;;;;;;5094744;28;20182;-72
2023/12/16 08:24:20;;;;;;;12.10;4.87;;;;;;;;;;5094673;28;20184;-72
2023/12/16 08:26:48;;;;;;;10.20;5.37;;;;;;;;;;5095324;28;20182;-72
2023/12/16 08:29:18;;;;;;;14.13;5.00;;;;;;;;;;5060734;28;20216;-72
2023/12/16 08:31:45;;;;;;;11.57;5.00;;;;;;;;;;5076965;28;20242;-73
2023/12/16 08:34:12;;;;;;;9.03;4.53;;;;;;;;;;5060267;28;20181;-72
2023/12/16 08:36:41;;;;;;;9.57;4.80;;;;;;;;;;5076949;28;20557;-72
2023/12/16 08:39:08;;;;;;;11.83;5.17;;;;;;;;;;5094828;28;20690;-73
2023/12/16 08:41:35;;;;;;;10.13;4.87;;;;;;;;;;5094738;28;20178;-72
2023/12/16 08:44:03;;;;;;;8.83;4.40;;;;;;;;;;5060387;28;20247;-73
2023/12/16 08:46:30;;;;;;;8.37;4.20;;;;;;;;;;5076743;28;20181;-72
2023/12/16 08:48:57;;;;;;;13.03;5.67;;;;;;;;;;5094866;28;20185;-73
2023/12/16 08:51:25;;;;;;;12.57;6.63;;;;;;;;;;5076199;28;20218;-72
2023/12/16 08:53:53;;;;;;;12.93;5.13;;;;;;;;;;5076458;28;20402;-73
2023/12/16 08:56:20;;;;;;;10.33;5.23;;;;;;;;;;5060050;28;20189;-72
2023/12/16 08:58:47;;;;;;;12.90;6.57;;;;;;;;;;5076508;28;20239;-72
2023/12/16 09:01:14;;;;;;;12.17;4.43;;;;;;;;;;5094239;28;20223;-72
2023/12/16 09:03:42;;;;;;;12.57;5.50;;;;;;;;;;5093907;28;20181;-72
2023/12/16 09:06:09;;;;;;;12.63;5.20;;;;;;;;;;5092289;28;20181;-73
2023/12/16 09:08:36;;;;;;;10.50;5.10;;;;;;;;;;5093859;28;20182;-72
2023/12/16 09:11:04;;;;;;;16.77;7.87;;;;;;;;;;5076132;28;20205;-73
2023/12/16 09:13:31;;;;;;;12.53;5.23;;;;;;;;;;5059471;28;20544;-73
2023/12/16 09:15:58;;;;;;;16.13;8.53;;;;;;;;;;5094348;28;20189;-72
2023/12/16 09:18:28;;;;;;;14.63;7.00;;;;;;;;;;5093617;28;20201;-72
2023/12/16 09:20:55;;;;;;;8.77;4.80;;;;;;;;;;5076323;28;20184;-73
2023/12/16 09:23:21;;;;;;;10.07;4.40;;;;;;;;;;5075723;28;20189;-73
2023/12/16 09:25:48;;;;;;;5.13;3.13;;;;;;;;;;5093739;28;20271;-73
2023/12/16 09:28:16;;;;;;;9.70;4.63;;;;;;;;;;5094064;28;20169;-72
2023/12/16 09:30:43;;;;;;;10.20;5.10;;;;;;;;;;5059024;28;20213;-71
2023/12/16 09:33:10;;;;;;;8.50;4.23;;;;;;;;;;5093646;28;20230;-73
2023/12/16 09:35:37;;;;;;;11.50;4.17;;;;;;;;;;5093746;28;20272;-73
2023/12/16 09:38:05;;;;;;;7.90;3.53;;;;;;;;;;5093657;28;20205;-73
2023/12/16 09:40:32;;;;;;;8.77;3.80;;;;;;;;;;5075838;28;20189;-74
2023/12/16 09:43:04;;;;;;;9.20;4.40;;;;;;;;;;5076020;28;20181;-72
2023/12/16 09:45:32;;;;;;;13.87;4.67;;;;;;;;;;5059218;28;20192;-73
2023/12/16 09:47:58;;;;;;;8.67;4.37;;;;;;;;;;5059134;28;20620;-72
2023/12/16 09:50:26;;;;;;;8.80;4.40;;;;;;;;;;5093530;28;20598;-72
2023/12/16 09:52:53;;;;;;;9.57;4.00;;;;;;;;;;5075820;28;20536;-73
2023/12/16 09:55:21;;;;;;;11.47;5.17;;;;;;;;;;5076057;28;20189;-72
2023/12/16 09:57:49;;;;;;;10.53;3.80;;;;;;;;;;5059675;28;20185;-73
2023/12/16 10:00:17;;;;;;;12.93;5.63;;;;;;;;;;5076109;28;20633;-75
2023/12/16 10:02:47;;;;;;;8.57;4.17;;;;;;;;;;5095762;28;20180;-75
2023/12/16 10:05:14;;;;;;;7.27;4.03;;;;;;;;;;5097153;28;20238;-71
2023/12/16 10:07:42;;;;;;;11.00;4.20;;;;;;;;;;5079725;28;20189;-72
2023/12/16 10:10:09;;;;;;;12.73;4.60;;;;;;;;;;5079288;28;20680;-72
2023/12/16 10:12:35;;;;;;;12.40;4.10;;;;;;;;;;5063144;28;20269;-72
2023/12/16 10:15:02;;;;;;;8.90;3.20;;;;;;;;;;5079345;28;20516;-73
2023/12/16 10:17:29;;;;;;;14.43;3.90;;;;;;;;;;5079211;28;20231;-75
2023/12/16 10:19:56;;;;;;;9.10;4.20;;;;;;;;;;5079419;28;20529;-75
2023/12/16 10:22:23;;;;;;;10.50;3.87;;;;;;;;;;5062577;28;20263;-75
2023/12/16 10:24:51;;;;;;;8.27;4.07;;;;;;;;;;5097615;28;20209;-75
2023/12/16 10:27:19;;;;;;;11.27;4.50;;;;;;;;;;5096840;28;20247;-75
2023/12/16 10:29:46;;;;;;;9.90;4.20;;;;;;;;;;5097304;28;20201;-74
2023/12/16 10:32:29;;;;;;;10.67;3.70;;;;;;;;;;5081505;28;20176;-75
2023/12/16 10:34:56;;;;;;;8.47;3.70;;;;;;;;;;5078987;28;20181;-75
2023/12/16 10:37:23;;;;;;;12.43;4.00;;;;;;;;;;5096835;28;20239;-74
2023/12/16 10:39:50;;;;;;;7.67;2.97;;;;;;;;;;5062159;28;20532;-73
2023/12/16 10:42:19;;;;;;;9.07;3.20;;;;;;;;;;5061688;28;20258;-72
2023/12/16 10:44:46;;;;;;;11.53;3.33;;;;;;;;;;5097034;28;20184;-74
2023/12/16 10:47:15;;;;;;;10.87;3.93;;;;;;;;;;5078955;28;20220;-75
2023/12/16 10:49:42;;;;;;;11.00;3.70;;;;;;;;;;5062722;28;20211;-76
2023/12/16 10:52:11;;;;;;;7.87;3.67;;;;;;;;;;5079194;28;20189;-75
2023/12/16 10:54:43;;;;;;;14.80;4.33;;;;;;;;;;5078344;28;20243;-70
2023/12/16 10:57:23;;;;;;;11.33;3.70;;;;;;;;;;5062582;28;20628;-76
2023/12/16 11:00:11;;;;;;;14.10;4.80;;;;;;;;;;5078881;28;20558;-75
2023/12/16 11:02:43;;;;;;;10.00;4.17;;;;;;;;;;5078986;28;20233;-75
2023/12/16 11:05:13;;;;;;;11.03;3.40;;;;;;;;;;5079281;28;20269;-76
2023/12/16 11:07:41;;;;;;;14.50;4.87;;;;;;;;;;5063118;28;20166;-76
2023/12/16 11:10:08;;;;;;;11.10;4.30;;;;;;;;;;5062295;28;20209;-75
2023/12/16 11:12:35;;;;;;;9.93;3.83;;;;;;;;;;5078372;28;20177;-73
2023/12/16 11:15:06;;;;;;;9.60;4.17;;;;;;;;;;5061314;28;20633;-74
2023/12/16 11:17:40;;;;;;;13.77;4.60;;;;;;;;;;5078749;28;20289;-74
2023/12/16 11:20:11;;;;;;;7.97;3.47;;;;;;;;;;5096627;28;20185;-75
2023/12/16 11:23:04;;;;;;;11.80;4.33;;;;;;;;;;5096078;28;20231;-72
2023/12/16 11:25:31;;;;;;;14.57;4.00;;;;;;;;;;5058195;28;20190;-76
2023/12/16 11:27:58;;;;;;;13.60;4.57;;;;;;;;;;5078388;28;20190;-75
2023/12/16 11:30:26;;;;;;;17.33;5.13;;;;;;;;;;5061708;28;20266;-74
2023/12/16 11:32:53;;;;;;;17.00;4.30;;;;;;;;;;5078982;28;20185;-73
2023/12/16 11:35:42;;;;;;;12.00;4.07;;;;;;;;;;5061260;28;20223;-74
2023/12/16 11:38:09;;;;;;;16.93;4.33;;;;;;;;;;5096339;28;20169;-74
2023/12/16 11:40:42;;;;;;;15.60;5.13;;;;;;;;;;5077719;28;20182;-73
2023/12/16 11:43:10;;;;;;;13.50;5.23;;;;;;;;;;5078094;28;20613;-74
2023/12/16 11:45:44;;;;;;;13.97;5.03;;;;;;;;;;5078648;28;20189;-72
2023/12/16 11:48:11;;;;;;;10.37;4.37;;;;;;;;;;5097057;28;20231;-74
2023/12/16 11:50:42;;;;;;;11.87;4.07;;;;;;;;;;5061379;28;20668;-72
2023/12/16 11:53:13;;;;;;;12.43;4.37;;;;;;;;;;5079546;28;20176;-74
2023/12/16 11:56:00;;;;;;;13.67;4.20;;;;;;;;;;5081071;28;20563;-73
2023/12/16 11:58:34;;;;;;;15.23;4.20;;;;;;;;;;5080946;28;20166;-75
2023/12/16 12:01:01;;;;;;;24.20;3.77;;;;;;;;;;5078261;28;20276;-73
2023/12/16 12:03:29;;;;;;;13.63;3.80;;;;;;;;;;5077403;28;20200;-73
2023/12/16 12:06:02;;;;;;;12.23;4.07;;;;;;;;;;5078818;28;20245;-73
2023/12/16 12:08:35;;;;;;;10.30;3.40;;;;;;;;;;5046726;28;20201;-74
2023/12/16 12:11:06;;;;;;;7.63;2.93;;;;;;;;;;5061770;28;20232;-75
2023/12/16 12:13:36;;;;;;;10.90;3.67;;;;;;;;;;5062154;28;20555;-74
2023/12/16 12:16:04;;;;;;;13.87;4.80;;;;;;;;;;5095249;28;20185;-75
2023/12/16 12:18:31;;;;;;;6.40;2.47;;;;;;;;;;5077217;28;20201;-74
2023/12/16 12:21:15;;;;;;;10.20;3.27;;;;;;;;;;5063103;28;20173;-74
2023/12/16 12:23:42;;;;;;;13.63;3.30;;;;;;;;;;5094744;28;20276;-74
2023/12/16 12:26:09;;;;;;;12.20;3.90;;;;;;;;;;5094753;28;20190;-75
2023/12/16 12:28:36;;;;;;;13.67;3.80;;;;;;;;;;5077516;28;20264;-74
2023/12/16 12:31:06;;;;;;;12.60;3.70;;;;;;;;;;5076909;28;20209;-74
2023/12/16 12:33:51;;;;;;;10.10;3.97;;;;;;;;;;5095403;28;20157;-75
2023/12/16 12:36:19;;;;;;;7.97;3.67;;;;;;;;;;5060433;28;20272;-75
2023/12/16 12:38:55;;;;;;;7.67;2.63;;;;;;;;;;5076954;28;20227;-75
2023/12/16 12:41:22;;;;;;;12.00;3.57;;;;;;;;;;5060392;28;20216;-73
2023/12/16 12:43:49;;;;;;;11.93;3.87;;;;;;;;;;5076842;28;20197;-75
2023/12/16 12:46:19;;;;;;;14.77;3.90;;;;;;;;;;5093787;28;20197;-75
2023/12/16 12:48:53;;;;;;;10.83;4.17;;;;;;;;;;5077310;28;20168;-74
2023/12/16 12:51:21;;;;;;;12.60;3.70;;;;;;;;;;5076294;28;20213;-75
2023/12/16 12:53:58;;;;;;;14.23;4.00;;;;;;;;;;5059856;28;20192;-75
2023/12/16 12:56:29;;;;;;;11.17;4.07;;;;;;;;;;5077034;28;20224;-75
2023/12/16 12:58:57;;;;;;;10.53;3.87;;;;;;;;;;5094485;28;20184;-76
2023/12/16 13:01:24;;;;;;;8.73;2.83;;;;;;;;;;5059793;28;20279;-76
2023/12/16 13:03:54;;;;;;;13.03;4.33;;;;;;;;;;5076254;28;20185;-75
2023/12/16 13:06:21;;;;;;;10.00;3.83;;;;;;;;;;5076694;28;20174;-76
2023/12/16 13:08:49;;;;;;;10.77;3.70;;;;;;;;;;5077108;28;20185;-73
2023/12/16 13:11:16;;;;;;;12.17;4.70;;;;;;;;;;5076094;28;20236;-75
2023/12/16 13:13:44;;;;;;;11.53;4.13;;;;;;;;;;5094030;28;20276;-75
2023/12/16 13:16:13;;;;;;;13.47;4.80;;;;;;;;;;5076133;28;20177;-75
2023/12/16 13:18:43;;;;;;;9.33;4.47;;;;;;;;;;5093881;28;20205;-74
2023/12/16 13:21:10;;;;;;;14.50;4.57;;;;;;;;;;5059827;28;20192;-75
2023/12/16 13:23:37;;;;;;;9.33;3.10;;;;;;;;;;5059157;28;20189;-76
2023/12/16 13:26:10;;;;;;;9.93;2.87;;;;;;;;;;5094529;28;20181;-75
2023/12/16 13:28:40;;;;;;;13.43;3.87;;;;;;;;;;5076573;28;20166;-75
2023/12/16 13:31:07;;;;;;;12.73;4.70;;;;;;;;;;5094282;28;20279;-77
2023/12/16 13:33:35;;;;;;;11.67;4.13;;;;;;;;;;5076187;28;20266;-75
2023/12/16 13:36:02;;;;;;;13.47;4.60;;;;;;;;;;5076495;28;20185;-78
2023/12/16 13:38:49;;;;;;;12.90;5.23;;;;;;;;;;5083293;28;20302;-77
2023/12/16 13:41:16;;;;;;;7.20;3.27;;;;;;;;;;5096803;28;20227;-76
2023/12/16 13:43:44;;;;;;;7.67;3.63;;;;;;;;;;5046743;28;20193;-75
2023/12/16 13:46:11;;;;;;;12.40;4.80;;;;;;;;;;5063321;28;20212;-74
2023/12/16 13:48:37;;;;;;;13.20;4.70;;;;;;;;;;5063334;28;20632;-75
2023/12/16 13:51:05;;;;;;;12.13;3.83;;;;;;;;;;5063534;28;20658;-76
2023/12/16 13:53:33;;;;;;;12.97;5.53;;;;;;;;;;5079740;28;20551;-75
2023/12/16 13:56:04;;;;;;;12.17;4.80;;;;;;;;;;5063459;28;20185;-76
2023/12/16 13:58:31;;;;;;;13.73;5.40;;;;;;;;;;5080069;28;20528;-75
2023/12/16 14:00:58;;;;;;;11.47;4.93;;;;;;;;;;5097484;28;20209;-76
2023/12/16 14:03:25;;;;;;;15.47;5.37;;;;;;;;;;5079936;28;20198;-75
2023/12/16 14:05:52;;;;;;;12.33;4.97;;;;;;;;;;5063416;28;20189;-76
2023/12/16 14:08:19;;;;;;;16.70;5.60;;;;;;;;;;5079372;28;20197;-75
2023/12/16 14:10:47;;;;;;;15.87;5.93;;;;;;;;;;5079848;28;20212;-75
2023/12/16 14:13:16;;;;;;;16.03;5.53;;;;;;;;;;5079528;28;20190;-76
2023/12/16 14:15:43;;;;;;;12.17;4.60;;;;;;;;;;5079402;28;20201;-75
2023/12/16 14:18:10;;;;;;;14.00;5.50;;;;;;;;;;5079534;28;20213;-76
2023/12/16 14:20:39;;;;;;;17.97;7.17;;;;;;;;;;5079432;28;20525;-75
2023/12/16 14:23:06;;;;;;;13.20;5.33;;;;;;;;;;5062727;28;20211;-74
2023/12/16 14:25:33;;;;;;;13.10;5.17;;;;;;;;;;5062840;28;20238;-75
2023/12/16 14:28:01;;;;;;;16.10;4.80;;;;;;;;;;5062898;28;20571;-73
2023/12/16 14:30:29;;;;;;;9.60;3.33;;;;;;;;;;5078708;28;20193;-75
2023/12/16 14:32:57;;;;;;;14.90;5.50;;;;;;;;;;5079231;28;20509;-75
2023/12/16 14:35:25;;;;;;;16.53;5.27;;;;;;;;;;5078759;28;20185;-76
2023/12/16 14:37:52;;;;;;;15.43;6.33;;;;;;;;;;5062437;28;20582;-74
2023/12/16 14:40:20;;;;;;;14.20;5.03;;;;;;;;;;5078736;28;20280;-76
2023/12/16 14:42:47;;;;;;;16.60;5.90;;;;;;;;;;5097383;28;20189;-77
2023/12/16 14:45:13;;;;;;;15.70;5.30;;;;;;;;;;5062065;28;20277;-74
2023/12/16 14:47:40;;;;;;;11.97;5.23;;;;;;;;;;5077985;28;20235;-77
2023/12/16 14:50:07;;;;;;;12.80;5.03;;;;;;;;;;5061220;28;20656;-78
2023/12/16 14:52:36;;;;;;;14.40;6.60;;;;;;;;;;5063174;28;20614;-74
2023/12/16 14:55:03;;;;;;;17.93;6.50;;;;;;;;;;5078874;28;20182;-74
2023/12/16 14:57:35;;;;;;;15.23;6.73;;;;;;;;;;5097510;28;20178;-73
2023/12/16 15:00:03;;;;;;;13.40;6.70;;;;;;;;;;5097037;28;20201;-74
2023/12/16 15:02:31;;;;;;;19.17;6.23;;;;;;;;;;5063314;28;20221;-73
2023/12/16 15:05:00;;;;;;;15.80;6.10;;;;;;;;;;5079272;28;20247;-73
2023/12/16 15:07:27;;;;;;;15.17;5.30;;;;;;;;;;5096853;28;20276;-75
2023/12/16 15:09:55;;;;;;;9.73;5.00;;;;;;;;;;5078554;28;20213;-75
2023/12/16 15:12:23;;;;;;;11.80;6.20;;;;;;;;;;5078763;28;20201;-75
2023/12/16 15:14:49;;;;;;;18.50;7.20;;;;;;;;;;5078704;28;20663;-76
2023/12/16 15:17:17;;;;;;;13.03;6.47;;;;;;;;;;5096678;28;20186;-73